createdAt,value
2023-02-12T15:16:16.109Z,101497.16
2023-02-12T15:18:59.056Z,101499.06
2023-02-12T15:21:31.995Z,101498.38
2023-02-12T15:24:07.515Z,101502.63
2023-02-12T15:26:41.625Z,101502.53
2023-02-12T15:29:21.484Z,101504.88
2023-02-12T15:31:56.731Z,101502.94
2023-02-12T15:34:29.292Z,101507.69
2023-02-12T15:37:01.137Z,101502.47
2023-02-12T15:39:39.564Z,101503.13
2023-02-12T15:42:26.849Z,101501.22
2023-02-12T15:45:07.551Z,101501.00
2023-02-12T15:47:37.890Z,101509.53
2023-02-12T15:50:07.848Z,101514.38
2023-02-12T15:52:41.422Z,101509.00
2023-02-12T15:55:18.909Z,101507.06
2023-02-12T15:57:52.321Z,101508.34
2023-02-12T16:00:31.044Z,101505.28
2023-02-12T16:03:01.228Z,101512.88
2023-02-12T16:05:30.631Z,101515.84
2023-02-12T16:08:00.084Z,101515.56
2023-02-12T16:10:29.238Z,101513.59
2023-02-12T16:12:58.149Z,101521.94
2023-02-12T16:15:32.133Z,101496.53
2023-02-12T16:18:04.546Z,101519.66
2023-02-12T16:20:34.153Z,101524.44
2023-02-12T16:23:08.757Z,101537.00
2023-02-12T16:25:39.548Z,101534.16
2023-02-12T16:28:18.377Z,101547.50
2023-02-12T16:30:48.864Z,101557.34
2023-02-12T16:33:36.537Z,101547.66
2023-02-12T16:36:07.209Z,101558.25
2023-02-12T16:38:43.031Z,101555.25
2023-02-12T16:41:24.908Z,101559.06
2023-02-12T16:44:24.929Z,101560.34
2023-02-12T16:46:56.373Z,101563.38
2023-02-12T16:49:28.269Z,101564.63
2023-02-12T16:52:23.912Z,101558.56
2023-02-12T16:54:52.653Z,101556.75
2023-02-12T16:57:21.313Z,101553.91
2023-02-12T16:59:50.291Z,101555.31
2023-02-12T17:02:19.009Z,101551.84
2023-02-12T17:04:49.281Z,101557.09
2023-02-12T17:07:23.636Z,101560.66
2023-02-12T17:09:52.842Z,101569.09
2023-02-12T17:12:21.823Z,101559.84
2023-02-12T17:14:51.961Z,101563.41
2023-02-12T17:17:20.535Z,101573.66
2023-02-12T17:19:50.764Z,101580.41
2023-02-12T17:22:23.605Z,101575.03
2023-02-12T17:24:55.012Z,101582.56
2023-02-12T17:27:23.941Z,101586.53
2023-02-12T17:29:52.754Z,101588.88
2023-02-12T17:32:22.714Z,101595.38
2023-02-12T17:34:53.288Z,101588.44
2023-02-12T17:37:24.758Z,101594.91
2023-02-12T17:39:54.627Z,101592.00
2023-02-12T17:42:23.452Z,101592.69
2023-02-12T17:44:52.237Z,101592.53
2023-02-12T17:47:21.224Z,101594.13
2023-02-12T17:49:50.010Z,101604.09
2023-02-12T17:52:20.221Z,101601.22
2023-02-12T17:54:49.026Z,101594.34
2023-02-12T17:57:18.996Z,101596.41
2023-02-12T17:59:47.714Z,101594.09
2023-02-12T18:02:16.500Z,101585.22
2023-02-12T18:04:45.464Z,101583.34
2023-02-12T18:07:14.219Z,101578.09
2023-02-12T18:09:44.501Z,101589.78
2023-02-12T18:12:13.419Z,101598.00
2023-02-12T18:14:42.124Z,101598.72
2023-02-12T18:17:11.645Z,101602.00
2023-02-12T18:19:40.480Z,101606.06
2023-02-12T18:22:09.436Z,101602.22
2023-02-12T18:24:38.374Z,101607.09
2023-02-12T18:27:08.547Z,101604.56
2023-02-12T18:29:37.316Z,101606.22
2023-02-12T18:32:06.324Z,101604.31
2023-02-12T18:34:36.047Z,101611.66
2023-02-12T18:37:04.462Z,101606.44
2023-02-12T18:39:33.295Z,101603.66
2023-02-12T18:42:02.057Z,101602.78
2023-02-12T18:44:32.542Z,101599.81
2023-02-12T18:47:01.562Z,101602.25
2023-02-12T18:49:30.354Z,101602.97
2023-02-12T18:51:59.202Z,101608.72
2023-02-12T18:54:27.907Z,101607.75
2023-02-12T18:56:56.944Z,101607.69
2023-02-12T18:59:27.339Z,101594.94
2023-02-12T19:01:58.109Z,101609.22
2023-02-12T19:04:28.151Z,101616.72
2023-02-12T19:06:57.488Z,101624.94
2023-02-12T19:09:27.415Z,101614.81
2023-02-12T19:11:58.245Z,101632.06
2023-02-12T19:14:28.980Z,101624.28
2023-02-12T19:16:59.069Z,101616.63
2023-02-12T19:19:28.400Z,101620.34
2023-02-12T19:21:57.182Z,101630.78
2023-02-12T19:24:37.628Z,101632.16
2023-02-12T19:27:14.587Z,101634.63
2023-02-12T19:29:43.471Z,101633.69
2023-02-12T19:32:13.865Z,101631.56
2023-02-12T19:34:42.721Z,101637.28
2023-02-12T19:37:13.185Z,101632.78
2023-02-12T19:39:42.229Z,101632.66
2023-02-12T19:42:15.056Z,101618.91
2023-02-12T19:44:44.640Z,101628.53
2023-02-12T19:47:14.961Z,101637.53
2023-02-12T19:49:44.676Z,101635.91
2023-02-12T19:52:13.508Z,101642.22
2023-02-12T19:54:42.267Z,101639.97
2023-02-12T19:57:13.545Z,101632.03
2023-02-12T19:59:43.433Z,101633.22
2023-02-12T20:02:12.206Z,101631.44
2023-02-12T20:04:42.447Z,101642.13
2023-02-12T20:07:11.448Z,101643.78
2023-02-12T20:09:40.254Z,101646.00
2023-02-12T20:12:09.168Z,101647.34
2023-02-12T20:14:38.052Z,101647.16
2023-02-12T20:17:07.191Z,101643.47
2023-02-12T20:19:36.238Z,101640.38
2023-02-12T20:22:06.435Z,101641.91
2023-02-12T20:24:36.153Z,101647.53
2023-02-12T20:27:05.146Z,101645.00
2023-02-12T20:29:34.119Z,101649.81
2023-02-12T20:32:02.946Z,101647.47
2023-02-12T20:34:42.468Z,101648.50
2023-02-12T20:37:19.530Z,101645.16
2023-02-12T20:39:48.572Z,101648.44
2023-02-12T20:42:17.230Z,101651.31
2023-02-12T20:44:46.081Z,101645.88
2023-02-12T20:47:14.798Z,101649.75
2023-02-12T20:49:43.767Z,101651.63
2023-02-12T20:52:12.809Z,101656.16
2023-02-12T20:54:43.128Z,101650.13
2023-02-12T20:57:11.987Z,101655.81
2023-02-12T20:59:41.065Z,101656.16
2023-02-12T21:02:11.453Z,101653.00
2023-02-12T21:04:40.294Z,101648.63
2023-02-12T21:07:09.014Z,101654.47
2023-02-12T21:09:37.856Z,101653.47
2023-02-12T21:12:08.293Z,101652.66
2023-02-12T21:14:37.004Z,101662.03
2023-02-12T21:17:05.886Z,101662.03
2023-02-12T21:19:37.415Z,101663.25
2023-02-12T21:22:06.317Z,101664.69
2023-02-12T21:24:35.335Z,101669.06
2023-02-12T21:27:04.295Z,101666.75
2023-02-12T21:29:34.482Z,101670.13
2023-02-12T21:32:03.461Z,101669.28
2023-02-12T21:34:32.275Z,101663.81
2023-02-12T21:37:01.113Z,101671.59
2023-02-12T21:39:29.965Z,101681.84
2023-02-12T21:42:02.757Z,101673.47
2023-02-12T21:44:35.605Z,101674.00
2023-02-12T21:47:04.708Z,101672.25
2023-02-12T21:49:33.413Z,101670.28
2023-02-12T21:52:04.575Z,101670.84
2023-02-12T21:54:33.837Z,101668.09
2023-02-12T21:57:02.553Z,101660.16
2023-02-12T21:59:32.517Z,101671.94
2023-02-12T22:02:03.031Z,101677.75
2023-02-12T22:04:31.976Z,101683.22
2023-02-12T22:07:03.774Z,101685.50
2023-02-12T22:09:33.077Z,101681.59
2023-02-12T22:12:01.825Z,101681.03
2023-02-12T22:14:31.023Z,101688.13
2023-02-12T22:16:59.982Z,101701.47
2023-02-12T22:19:30.301Z,101701.00
2023-02-12T22:21:59.113Z,101701.25
2023-02-12T22:24:27.859Z,101701.47
2023-02-12T22:26:56.817Z,101699.47
2023-02-12T22:29:25.527Z,101701.25
2023-02-12T22:31:54.990Z,101711.50
2023-02-12T22:34:23.905Z,101711.28
2023-02-12T22:36:54.054Z,101710.63
2023-02-12T22:39:22.826Z,101716.50
2023-02-12T22:41:51.517Z,101716.06
2023-02-12T22:44:21.401Z,101722.59
2023-02-12T22:46:51.285Z,101707.06
2023-02-12T22:49:20.316Z,101712.75
2023-02-12T22:51:49.089Z,101717.66
2023-02-12T22:54:20.605Z,101713.41
2023-02-12T22:56:52.300Z,101717.50
2023-02-12T22:59:21.272Z,101712.28
2023-02-12T23:01:49.980Z,101717.75
2023-02-12T23:04:20.375Z,101709.22
2023-02-12T23:06:49.457Z,101718.84
2023-02-12T23:09:20.037Z,101714.47
2023-02-12T23:11:49.769Z,101704.22
2023-02-12T23:14:18.885Z,101702.91
2023-02-12T23:16:48.133Z,101702.91
2023-02-12T23:19:17.197Z,101705.75
2023-02-12T23:21:46.022Z,101696.59
2023-02-12T23:24:15.768Z,101703.16
2023-02-12T23:26:46.245Z,101695.94
2023-02-12T23:29:15.165Z,101691.66
2023-02-12T23:31:44.030Z,101679.66
2023-02-12T23:34:13.062Z,101684.13
2023-02-12T23:36:41.970Z,101683.25
2023-02-12T23:39:13.726Z,101685.34
2023-02-12T23:41:42.572Z,101681.72
2023-02-12T23:44:13.164Z,101686.97
2023-02-12T23:46:42.264Z,101688.72
2023-02-12T23:49:11.273Z,101690.44
2023-02-12T23:51:39.999Z,101687.19
2023-02-12T23:54:08.695Z,101689.41
2023-02-12T23:56:37.514Z,101680.66
2023-02-12T23:59:06.866Z,101689.16
